sensor_id;sensor_type;location;lat;lon;timestamp;P1;durP1;ratioP1;P2;durP2;ratioP2
59006;SDS011;44792;52.760;6.726;2022-12-07T00:00:54;5.55;;;1.88;;
59006;SDS011;44792;52.760;6.726;2022-12-07T00:03:20;8.95;;;1.75;;
59006;SDS011;44792;52.760;6.726;2022-12-07T00:05:46;7.88;;;2.22;;
59006;SDS011;44792;52.760;6.726;2022-12-07T00:08:12;3.50;;;1.52;;
59006;SDS011;44792;52.760;6.726;2022-12-07T00:10:37;5.32;;;1.75;;
59006;SDS011;44792;52.760;6.726;2022-12-07T00:13:04;2.67;;;1.60;;
59006;SDS011;44792;52.760;6.726;2022-12-07T00:15:29;3.50;;;1.50;;
59006;SDS011;44792;52.760;6.726;2022-12-07T00:17:55;11.75;;;2.05;;
59006;SDS011;44792;52.760;6.726;2022-12-07T00:20:20;7.68;;;1.60;;
59006;SDS011;44792;52.760;6.726;2022-12-07T00:22:46;9.43;;;2.20;;
59006;SDS011;44792;52.760;6.726;2022-12-07T00:25:11;6.55;;;2.10;;
59006;SDS011;44792;52.760;6.726;2022-12-07T00:27:37;5.88;;;3.28;;
59006;SDS011;44792;52.760;6.726;2022-12-07T00:30:03;11.95;;;5.65;;
59006;SDS011;44792;52.760;6.726;2022-12-07T00:32:29;10.95;;;5.75;;
59006;SDS011;44792;52.760;6.726;2022-12-07T00:34:54;13.40;;;6.10;;
59006;SDS011;44792;52.760;6.726;2022-12-07T00:37:20;10.93;;;4.75;;
59006;SDS011;44792;52.760;6.726;2022-12-07T00:39:45;8.75;;;5.18;;
59006;SDS011;44792;52.760;6.726;2022-12-07T00:42:11;15.48;;;5.10;;
59006;SDS011;44792;52.760;6.726;2022-12-07T00:44:37;8.45;;;4.97;;
59006;SDS011;44792;52.760;6.726;2022-12-07T00:47:02;12.52;;;4.80;;
59006;SDS011;44792;52.760;6.726;2022-12-07T00:49:28;8.77;;;4.72;;
59006;SDS011;44792;52.760;6.726;2022-12-07T00:51:53;11.10;;;4.50;;
59006;SDS011;44792;52.760;6.726;2022-12-07T00:54:19;10.02;;;3.97;;
59006;SDS011;44792;52.760;6.726;2022-12-07T00:56:44;7.07;;;3.50;;
59006;SDS011;44792;52.760;6.726;2022-12-07T00:59:11;7.20;;;3.22;;
59006;SDS011;44792;52.760;6.726;2022-12-07T01:01:41;5.18;;;3.03;;
59006;SDS011;44792;52.760;6.726;2022-12-07T01:04:07;5.15;;;2.33;;
59006;SDS011;44792;52.760;6.726;2022-12-07T01:06:32;6.50;;;2.80;;
59006;SDS011;44792;52.760;6.726;2022-12-07T01:08:58;6.93;;;2.28;;
59006;SDS011;44792;52.760;6.726;2022-12-07T01:11:26;8.88;;;2.20;;
59006;SDS011;44792;52.760;6.726;2022-12-07T01:13:55;3.92;;;2.42;;
59006;SDS011;44792;52.760;6.726;2022-12-07T01:16:22;9.50;;;2.65;;
59006;SDS011;44792;52.760;6.726;2022-12-07T01:18:49;9.35;;;2.75;;
59006;SDS011;44792;52.760;6.726;2022-12-07T01:21:25;5.93;;;3.38;;
59006;SDS011;44792;52.760;6.726;2022-12-07T01:23:53;6.13;;;4.00;;
59006;SDS011;44792;52.760;6.726;2022-12-07T01:26:22;10.00;;;3.88;;
59006;SDS011;44792;52.760;6.726;2022-12-07T01:28:49;8.13;;;3.90;;
59006;SDS011;44792;52.760;6.726;2022-12-07T01:31:16;20.10;;;4.00;;
59006;SDS011;44792;52.760;6.726;2022-12-07T01:33:44;15.30;;;3.55;;
59006;SDS011;44792;52.760;6.726;2022-12-07T01:36:19;5.93;;;3.08;;
59006;SDS011;44792;52.760;6.726;2022-12-07T01:38:47;7.28;;;2.58;;
59006;SDS011;44792;52.760;6.726;2022-12-07T01:41:16;6.07;;;2.83;;
59006;SDS011;44792;52.760;6.726;2022-12-07T01:46:38;6.95;;;2.38;;
59006;SDS011;44792;52.760;6.726;2022-12-07T01:49:06;11.02;;;2.70;;
59006;SDS011;44792;52.760;6.726;2022-12-07T01:51:35;4.68;;;2.08;;
59006;SDS011;44792;52.760;6.726;2022-12-07T01:54:03;4.45;;;2.17;;
59006;SDS011;44792;52.760;6.726;2022-12-07T01:56:29;6.63;;;3.10;;
59006;SDS011;44792;52.760;6.726;2022-12-07T01:58:55;10.55;;;2.65;;
59006;SDS011;44792;52.760;6.726;2022-12-07T02:01:22;5.70;;;1.80;;
59006;SDS011;44792;52.760;6.726;2022-12-07T02:03:47;7.93;;;2.20;;
59006;SDS011;44792;52.760;6.726;2022-12-07T02:06:16;7.07;;;2.10;;
59006;SDS011;44792;52.760;6.726;2022-12-07T02:08:45;6.95;;;1.70;;
59006;SDS011;44792;52.760;6.726;2022-12-07T02:11:12;4.47;;;1.90;;
59006;SDS011;44792;52.760;6.726;2022-12-07T02:13:38;7.43;;;1.83;;
59006;SDS011;44792;52.760;6.726;2022-12-07T02:19:14;5.13;;;1.57;;
59006;SDS011;44792;52.760;6.726;2022-12-07T02:22:01;5.40;;;1.60;;
59006;SDS011;44792;52.760;6.726;2022-12-07T02:24:53;12.15;;;1.80;;
59006;SDS011;44792;52.760;6.726;2022-12-07T02:35:21;7.97;;;2.10;;
59006;SDS011;44792;52.760;6.726;2022-12-07T02:38:16;8.55;;;1.38;;
59006;SDS011;44792;52.760;6.726;2022-12-07T02:43:16;7.90;;;2.15;;
59006;SDS011;44792;52.760;6.726;2022-12-07T02:45:50;8.30;;;1.92;;
59006;SDS011;44792;52.760;6.726;2022-12-07T02:48:17;6.85;;;1.58;;
59006;SDS011;44792;52.760;6.726;2022-12-07T02:50:48;2.85;;;1.50;;
59006;SDS011;44792;52.760;6.726;2022-12-07T02:59:17;8.88;;;1.70;;
59006;SDS011;44792;52.760;6.726;2022-12-07T03:02:17;7.32;;;2.10;;
59006;SDS011;44792;52.760;6.726;2022-12-07T03:11:09;7.63;;;1.85;;
59006;SDS011;44792;52.760;6.726;2022-12-07T03:13:54;5.60;;;1.83;;
59006;SDS011;44792;52.760;6.726;2022-12-07T03:16:35;6.85;;;1.90;;
59006;SDS011;44792;52.760;6.726;2022-12-07T03:19:08;8.32;;;2.15;;
59006;SDS011;44792;52.760;6.726;2022-12-07T03:21:39;1.30;;;1.30;;
59006;SDS011;44792;52.760;6.726;2022-12-07T03:24:21;4.20;;;1.90;;
59006;SDS011;44792;52.760;6.726;2022-12-07T03:29:19;3.85;;;1.73;;
59006;SDS011;44792;52.760;6.726;2022-12-07T03:31:55;4.55;;;1.52;;
59006;SDS011;44792;52.760;6.726;2022-12-07T03:34:40;5.07;;;1.67;;
59006;SDS011;44792;52.760;6.726;2022-12-07T03:37:19;2.55;;;1.52;;
59006;SDS011;44792;52.760;6.726;2022-12-07T03:39:58;2.80;;;1.60;;
59006;SDS011;44792;52.760;6.726;2022-12-07T03:42:32;4.53;;;1.33;;
59006;SDS011;44792;52.760;6.726;2022-12-07T03:44:58;7.93;;;1.88;;
59006;SDS011;44792;52.760;6.726;2022-12-07T03:50:19;3.20;;;1.40;;
59006;SDS011;44792;52.760;6.726;2022-12-07T03:52:55;3.65;;;1.60;;
59006;SDS011;44792;52.760;6.726;2022-12-07T03:55:26;3.00;;;1.30;;
59006;SDS011;44792;52.760;6.726;2022-12-07T03:57:58;2.78;;;1.40;;
59006;SDS011;44792;52.760;6.726;2022-12-07T04:00:27;7.22;;;2.08;;
59006;SDS011;44792;52.760;6.726;2022-12-07T04:02:53;6.25;;;1.20;;
59006;SDS011;44792;52.760;6.726;2022-12-07T04:05:19;2.33;;;1.17;;
59006;SDS011;44792;52.760;6.726;2022-12-07T04:07:45;2.30;;;1.30;;
59006;SDS011;44792;52.760;6.726;2022-12-07T04:10:11;3.58;;;1.23;;
59006;SDS011;44792;52.760;6.726;2022-12-07T04:12:36;4.75;;;1.38;;
59006;SDS011;44792;52.760;6.726;2022-12-07T04:15:02;6.88;;;2.00;;
59006;SDS011;44792;52.760;6.726;2022-12-07T04:17:29;6.50;;;1.35;;
59006;SDS011;44792;52.760;6.726;2022-12-07T04:19:54;9.45;;;1.58;;
59006;SDS011;44792;52.760;6.726;2022-12-07T04:22:20;5.10;;;1.98;;
59006;SDS011;44792;52.760;6.726;2022-12-07T04:24:45;6.50;;;1.60;;
59006;SDS011;44792;52.760;6.726;2022-12-07T04:27:11;4.00;;;1.40;;
59006;SDS011;44792;52.760;6.726;2022-12-07T04:29:36;5.38;;;1.55;;
59006;SDS011;44792;52.760;6.726;2022-12-07T04:32:02;7.65;;;1.60;;
59006;SDS011;44792;52.760;6.726;2022-12-07T04:34:27;7.78;;;1.67;;
59006;SDS011;44792;52.760;6.726;2022-12-07T04:36:53;5.05;;;1.50;;
59006;SDS011;44792;52.760;6.726;2022-12-07T04:39:20;4.10;;;1.73;;
59006;SDS011;44792;52.760;6.726;2022-12-07T04:41:48;4.75;;;1.70;;
59006;SDS011;44792;52.760;6.726;2022-12-07T04:44:14;6.85;;;2.13;;
59006;SDS011;44792;52.760;6.726;2022-12-07T04:46:41;6.20;;;1.50;;
59006;SDS011;44792;52.760;6.726;2022-12-07T04:49:07;9.63;;;1.40;;
59006;SDS011;44792;52.760;6.726;2022-12-07T04:51:33;6.63;;;1.65;;
59006;SDS011;44792;52.760;6.726;2022-12-07T04:53:59;5.43;;;1.33;;
59006;SDS011;44792;52.760;6.726;2022-12-07T04:56:25;4.90;;;1.73;;
59006;SDS011;44792;52.760;6.726;2022-12-07T04:58:51;6.00;;;1.30;;
59006;SDS011;44792;52.760;6.726;2022-12-07T05:01:17;3.55;;;1.33;;
59006;SDS011;44792;52.760;6.726;2022-12-07T05:03:43;6.78;;;1.52;;
59006;SDS011;44792;52.760;6.726;2022-12-07T05:06:09;5.15;;;1.50;;
59006;SDS011;44792;52.760;6.726;2022-12-07T05:08:35;1.80;;;1.10;;
59006;SDS011;44792;52.760;6.726;2022-12-07T05:11:02;2.15;;;1.23;;
59006;SDS011;44792;52.760;6.726;2022-12-07T05:13:28;7.47;;;1.50;;
59006;SDS011;44792;52.760;6.726;2022-12-07T05:15:54;4.80;;;1.35;;
59006;SDS011;44792;52.760;6.726;2022-12-07T05:18:19;4.55;;;1.50;;
59006;SDS011;44792;52.760;6.726;2022-12-07T05:20:45;6.60;;;1.58;;
59006;SDS011;44792;52.760;6.726;2022-12-07T05:23:11;3.50;;;1.20;;
59006;SDS011;44792;52.760;6.726;2022-12-07T05:25:37;2.50;;;1.38;;
59006;SDS011;44792;52.760;6.726;2022-12-07T05:28:03;5.07;;;1.80;;
59006;SDS011;44792;52.760;6.726;2022-12-07T05:30:30;4.25;;;1.52;;
59006;SDS011;44792;52.760;6.726;2022-12-07T05:32:55;5.32;;;1.52;;
59006;SDS011;44792;52.760;6.726;2022-12-07T05:35:21;2.80;;;1.52;;
59006;SDS011;44792;52.760;6.726;2022-12-07T05:37:47;5.18;;;1.30;;
59006;SDS011;44792;52.760;6.726;2022-12-07T05:40:12;11.98;;;1.60;;
59006;SDS011;44792;52.760;6.726;2022-12-07T05:42:39;8.10;;;1.45;;
59006;SDS011;44792;52.760;6.726;2022-12-07T05:45:05;8.98;;;1.75;;
59006;SDS011;44792;52.760;6.726;2022-12-07T05:47:31;3.92;;;1.00;;
59006;SDS011;44792;52.760;6.726;2022-12-07T05:49:57;4.80;;;1.85;;
59006;SDS011;44792;52.760;6.726;2022-12-07T05:52:23;2.10;;;0.93;;
59006;SDS011;44792;52.760;6.726;2022-12-07T05:54:48;5.53;;;1.20;;
59006;SDS011;44792;52.760;6.726;2022-12-07T05:57:14;4.25;;;1.38;;
59006;SDS011;44792;52.760;6.726;2022-12-07T05:59:39;5.07;;;1.17;;
59006;SDS011;44792;52.760;6.726;2022-12-07T06:02:07;3.88;;;1.05;;
59006;SDS011;44792;52.760;6.726;2022-12-07T06:04:35;2.13;;;1.38;;
59006;SDS011;44792;52.760;6.726;2022-12-07T06:07:03;3.22;;;1.42;;
59006;SDS011;44792;52.760;6.726;2022-12-07T06:09:29;7.57;;;1.60;;
59006;SDS011;44792;52.760;6.726;2022-12-07T06:11:55;6.15;;;1.50;;
59006;SDS011;44792;52.760;6.726;2022-12-07T06:14:40;6.22;;;1.30;;
59006;SDS011;44792;52.760;6.726;2022-12-07T06:17:06;7.30;;;1.00;;
59006;SDS011;44792;52.760;6.726;2022-12-07T06:19:31;4.80;;;1.30;;
59006;SDS011;44792;52.760;6.726;2022-12-07T06:21:57;4.63;;;1.95;;
59006;SDS011;44792;52.760;6.726;2022-12-07T06:24:23;4.10;;;1.23;;
59006;SDS011;44792;52.760;6.726;2022-12-07T06:26:49;3.83;;;1.42;;
59006;SDS011;44792;52.760;6.726;2022-12-07T06:29:16;4.15;;;1.50;;
59006;SDS011;44792;52.760;6.726;2022-12-07T06:31:42;4.22;;;1.40;;
59006;SDS011;44792;52.760;6.726;2022-12-07T06:34:12;3.30;;;1.27;;
59006;SDS011;44792;52.760;6.726;2022-12-07T06:36:39;4.53;;;1.27;;
59006;SDS011;44792;52.760;6.726;2022-12-07T06:39:05;3.42;;;1.23;;
59006;SDS011;44792;52.760;6.726;2022-12-07T06:41:31;6.07;;;2.03;;
59006;SDS011;44792;52.760;6.726;2022-12-07T06:43:57;3.38;;;1.50;;
59006;SDS011;44792;52.760;6.726;2022-12-07T06:46:23;4.60;;;1.65;;
59006;SDS011;44792;52.760;6.726;2022-12-07T06:48:49;3.50;;;1.90;;
59006;SDS011;44792;52.760;6.726;2022-12-07T06:51:16;8.30;;;2.47;;
59006;SDS011;44792;52.760;6.726;2022-12-07T06:53:41;10.38;;;2.40;;
59006;SDS011;44792;52.760;6.726;2022-12-07T06:56:07;9.32;;;2.22;;
59006;SDS011;44792;52.760;6.726;2022-12-07T06:58:32;11.15;;;1.90;;
59006;SDS011;44792;52.760;6.726;2022-12-07T07:00:58;2.10;;;1.70;;
59006;SDS011;44792;52.760;6.726;2022-12-07T07:03:24;1.90;;;1.60;;
59006;SDS011;44792;52.760;6.726;2022-12-07T07:05:49;3.67;;;1.40;;
59006;SDS011;44792;52.760;6.726;2022-12-07T07:08:15;4.15;;;1.52;;
59006;SDS011;44792;52.760;6.726;2022-12-07T07:10:41;4.55;;;1.38;;
59006;SDS011;44792;52.760;6.726;2022-12-07T07:13:06;5.72;;;1.35;;
59006;SDS011;44792;52.760;6.726;2022-12-07T07:15:32;6.00;;;1.17;;
59006;SDS011;44792;52.760;6.726;2022-12-07T07:17:58;14.75;;;3.40;;
59006;SDS011;44792;52.760;6.726;2022-12-07T07:20:24;11.20;;;5.05;;
59006;SDS011;44792;52.760;6.726;2022-12-07T07:22:50;6.40;;;2.78;;
59006;SDS011;44792;52.760;6.726;2022-12-07T07:25:18;8.15;;;3.72;;
59006;SDS011;44792;52.760;6.726;2022-12-07T07:27:44;7.72;;;3.40;;
59006;SDS011;44792;52.760;6.726;2022-12-07T07:30:09;10.10;;;3.33;;
59006;SDS011;44792;52.760;6.726;2022-12-07T07:32:36;9.73;;;4.35;;
59006;SDS011;44792;52.760;6.726;2022-12-07T07:35:01;7.68;;;3.33;;
59006;SDS011;44792;52.760;6.726;2022-12-07T07:37:27;5.97;;;3.20;;
59006;SDS011;44792;52.760;6.726;2022-12-07T07:39:53;11.00;;;3.42;;
59006;SDS011;44792;52.760;6.726;2022-12-07T07:42:19;10.23;;;2.97;;
59006;SDS011;44792;52.760;6.726;2022-12-07T07:44:44;9.93;;;3.30;;
59006;SDS011;44792;52.760;6.726;2022-12-07T07:47:10;12.70;;;6.85;;
59006;SDS011;44792;52.760;6.726;2022-12-07T07:49:35;10.35;;;6.10;;
59006;SDS011;44792;52.760;6.726;2022-12-07T07:52:01;6.28;;;3.50;;
59006;SDS011;44792;52.760;6.726;2022-12-07T07:54:27;4.63;;;1.92;;
59006;SDS011;44792;52.760;6.726;2022-12-07T07:56:52;4.70;;;1.85;;
59006;SDS011;44792;52.760;6.726;2022-12-07T07:59:18;4.53;;;1.73;;
59006;SDS011;44792;52.760;6.726;2022-12-07T08:01:44;3.75;;;1.80;;
59006;SDS011;44792;52.760;6.726;2022-12-07T08:04:09;8.63;;;2.67;;
59006;SDS011;44792;52.760;6.726;2022-12-07T08:06:35;11.80;;;2.65;;
59006;SDS011;44792;52.760;6.726;2022-12-07T08:09:00;6.18;;;2.40;;
59006;SDS011;44792;52.760;6.726;2022-12-07T08:11:27;5.13;;;1.58;;
59006;SDS011;44792;52.760;6.726;2022-12-07T08:13:52;7.13;;;2.03;;
59006;SDS011;44792;52.760;6.726;2022-12-07T08:16:18;8.98;;;2.03;;
59006;SDS011;44792;52.760;6.726;2022-12-07T08:18:43;3.22;;;1.33;;
59006;SDS011;44792;52.760;6.726;2022-12-07T08:21:10;6.38;;;1.67;;
59006;SDS011;44792;52.760;6.726;2022-12-07T08:23:37;3.38;;;1.55;;
59006;SDS011;44792;52.760;6.726;2022-12-07T08:26:04;12.43;;;2.20;;
59006;SDS011;44792;52.760;6.726;2022-12-07T08:28:31;4.05;;;1.60;;
59006;SDS011;44792;52.760;6.726;2022-12-07T08:31:01;6.95;;;1.75;;
59006;SDS011;44792;52.760;6.726;2022-12-07T08:33:35;10.43;;;2.53;;
59006;SDS011;44792;52.760;6.726;2022-12-07T08:36:01;24.40;;;7.20;;
59006;SDS011;44792;52.760;6.726;2022-12-07T08:38:28;11.43;;;4.45;;
59006;SDS011;44792;52.760;6.726;2022-12-07T08:40:54;8.57;;;2.42;;
59006;SDS011;44792;52.760;6.726;2022-12-07T08:43:21;13.10;;;4.95;;
59006;SDS011;44792;52.760;6.726;2022-12-07T08:45:47;11.75;;;4.53;;
59006;SDS011;44792;52.760;6.726;2022-12-07T08:48:32;10.52;;;3.83;;
59006;SDS011;44792;52.760;6.726;2022-12-07T08:51:01;13.15;;;3.60;;
59006;SDS011;44792;52.760;6.726;2022-12-07T08:53:27;15.27;;;5.10;;
59006;SDS011;44792;52.760;6.726;2022-12-07T08:55:54;9.57;;;3.42;;
59006;SDS011;44792;52.760;6.726;2022-12-07T08:58:21;20.75;;;5.25;;
59006;SDS011;44792;52.760;6.726;2022-12-07T09:00:47;13.55;;;4.80;;
59006;SDS011;44792;52.760;6.726;2022-12-07T09:03:12;20.17;;;4.10;;
59006;SDS011;44792;52.760;6.726;2022-12-07T09:05:38;12.40;;;3.00;;
59006;SDS011;44792;52.760;6.726;2022-12-07T09:08:03;7.70;;;3.00;;
59006;SDS011;44792;52.760;6.726;2022-12-07T09:10:30;7.15;;;1.73;;
59006;SDS011;44792;52.760;6.726;2022-12-07T09:12:55;4.07;;;1.40;;
59006;SDS011;44792;52.760;6.726;2022-12-07T09:15:25;25.50;;;6.05;;
59006;SDS011;44792;52.760;6.726;2022-12-07T09:17:52;14.35;;;4.40;;
59006;SDS011;44792;52.760;6.726;2022-12-07T09:20:17;5.25;;;2.92;;
59006;SDS011;44792;52.760;6.726;2022-12-07T09:22:43;5.45;;;2.85;;
59006;SDS011;44792;52.760;6.726;2022-12-07T09:25:09;5.90;;;2.00;;
59006;SDS011;44792;52.760;6.726;2022-12-07T09:27:34;7.28;;;1.90;;
59006;SDS011;44792;52.760;6.726;2022-12-07T09:30:00;5.85;;;1.90;;
59006;SDS011;44792;52.760;6.726;2022-12-07T09:32:26;5.80;;;1.90;;
59006;SDS011;44792;52.760;6.726;2022-12-07T09:34:51;6.50;;;2.25;;
59006;SDS011;44792;52.760;6.726;2022-12-07T09:37:17;7.30;;;2.17;;
59006;SDS011;44792;52.760;6.726;2022-12-07T09:39:42;9.02;;;1.95;;
59006;SDS011;44792;52.760;6.726;2022-12-07T09:42:08;7.13;;;1.60;;
59006;SDS011;44792;52.760;6.726;2022-12-07T09:44:39;8.10;;;2.13;;
59006;SDS011;44792;52.760;6.726;2022-12-07T09:47:05;5.53;;;1.92;;
59006;SDS011;44792;52.760;6.726;2022-12-07T09:49:31;7.40;;;1.65;;
59006;SDS011;44792;52.760;6.726;2022-12-07T09:52:01;7.22;;;1.40;;
59006;SDS011;44792;52.760;6.726;2022-12-07T09:54:48;3.90;;;1.50;;
59006;SDS011;44792;52.760;6.726;2022-12-07T09:57:15;5.30;;;2.10;;
59006;SDS011;44792;52.760;6.726;2022-12-07T09:59:41;11.10;;;2.97;;
59006;SDS011;44792;52.760;6.726;2022-12-07T10:02:21;10.93;;;3.00;;
59006;SDS011;44792;52.760;6.726;2022-12-07T10:04:59;8.03;;;2.90;;
59006;SDS011;44792;52.760;6.726;2022-12-07T10:07:25;9.15;;;2.25;;
59006;SDS011;44792;52.760;6.726;2022-12-07T10:09:51;10.60;;;2.13;;
59006;SDS011;44792;52.760;6.726;2022-12-07T10:12:16;9.70;;;2.35;;
59006;SDS011;44792;52.760;6.726;2022-12-07T10:15:01;6.97;;;2.65;;
59006;SDS011;44792;52.760;6.726;2022-12-07T10:17:32;10.88;;;2.67;;
59006;SDS011;44792;52.760;6.726;2022-12-07T10:20:33;2.15;;;1.70;;
59006;SDS011;44792;52.760;6.726;2022-12-07T10:25:25;5.47;;;2.05;;
59006;SDS011;44792;52.760;6.726;2022-12-07T10:28:03;6.95;;;1.58;;
59006;SDS011;44792;52.760;6.726;2022-12-07T10:30:34;7.32;;;1.92;;
59006;SDS011;44792;52.760;6.726;2022-12-07T10:33:38;10.07;;;1.80;;
59006;SDS011;44792;52.760;6.726;2022-12-07T10:36:18;6.18;;;2.13;;
59006;SDS011;44792;52.760;6.726;2022-12-07T10:39:09;7.68;;;1.98;;
59006;SDS011;44792;52.760;6.726;2022-12-07T10:44:29;16.15;;;1.98;;
59006;SDS011;44792;52.760;6.726;2022-12-07T10:47:01;6.93;;;1.67;;
59006;SDS011;44792;52.760;6.726;2022-12-07T10:55:17;6.78;;;1.50;;
59006;SDS011;44792;52.760;6.726;2022-12-07T11:00:29;7.10;;;1.88;;
59006;SDS011;44792;52.760;6.726;2022-12-07T11:11:23;4.47;;;1.85;;
59006;SDS011;44792;52.760;6.726;2022-12-07T11:16:49;4.82;;;1.95;;
59006;SDS011;44792;52.760;6.726;2022-12-07T11:19:28;6.65;;;1.90;;
59006;SDS011;44792;52.760;6.726;2022-12-07T11:25:02;9.10;;;1.90;;
59006;SDS011;44792;52.760;6.726;2022-12-07T11:30:43;8.15;;;1.80;;
59006;SDS011;44792;52.760;6.726;2022-12-07T11:33:28;5.35;;;1.90;;
59006;SDS011;44792;52.760;6.726;2022-12-07T11:36:17;16.55;;;5.15;;
59006;SDS011;44792;52.760;6.726;2022-12-07T11:39:30;9.77;;;4.10;;
59006;SDS011;44792;52.760;6.726;2022-12-07T11:42:01;7.28;;;2.30;;
59006;SDS011;44792;52.760;6.726;2022-12-07T11:47:02;4.50;;;2.22;;
59006;SDS011;44792;52.760;6.726;2022-12-07T11:52:06;7.57;;;2.60;;
59006;SDS011;44792;52.760;6.726;2022-12-07T11:54:57;8.60;;;2.38;;
59006;SDS011;44792;52.760;6.726;2022-12-07T11:57:28;4.35;;;2.08;;
59006;SDS011;44792;52.760;6.726;2022-12-07T12:00:04;5.70;;;2.30;;
59006;SDS011;44792;52.760;6.726;2022-12-07T12:03:35;11.77;;;1.92;;
59006;SDS011;44792;52.760;6.726;2022-12-07T12:05:35;7.43;;;2.33;;
59006;SDS011;44792;52.760;6.726;2022-12-07T12:08:43;9.00;;;2.42;;
59006;SDS011;44792;52.760;6.726;2022-12-07T12:11:05;4.43;;;2.13;;
59006;SDS011;44792;52.760;6.726;2022-12-07T12:13:52;6.03;;;2.40;;
59006;SDS011;44792;52.760;6.726;2022-12-07T12:16:44;3.67;;;1.58;;
59006;SDS011;44792;52.760;6.726;2022-12-07T12:19:16;9.38;;;2.03;;
59006;SDS011;44792;52.760;6.726;2022-12-07T12:21:45;4.00;;;1.58;;
59006;SDS011;44792;52.760;6.726;2022-12-07T12:24:17;4.47;;;1.45;;
59006;SDS011;44792;52.760;6.726;2022-12-07T12:26:51;7.43;;;1.60;;
59006;SDS011;44792;52.760;6.726;2022-12-07T12:29:28;4.97;;;1.73;;
59006;SDS011;44792;52.760;6.726;2022-12-07T12:32:06;6.30;;;1.73;;
59006;SDS011;44792;52.760;6.726;2022-12-07T12:42:46;3.42;;;1.55;;
59006;SDS011;44792;52.760;6.726;2022-12-07T12:45:18;3.70;;;2.03;;
59006;SDS011;44792;52.760;6.726;2022-12-07T12:52:55;3.92;;;2.40;;
59006;SDS011;44792;52.760;6.726;2022-12-07T13:00:45;3.22;;;1.80;;
59006;SDS011;44792;52.760;6.726;2022-12-07T13:03:28;6.15;;;1.33;;
59006;SDS011;44792;52.760;6.726;2022-12-07T13:06:57;4.00;;;1.67;;
59006;SDS011;44792;52.760;6.726;2022-12-07T13:08:52;4.68;;;1.58;;
59006;SDS011;44792;52.760;6.726;2022-12-07T13:11:28;6.40;;;1.60;;
59006;SDS011;44792;52.760;6.726;2022-12-07T13:17:06;8.93;;;1.75;;
59006;SDS011;44792;52.760;6.726;2022-12-07T13:22:31;9.30;;;1.58;;
59006;SDS011;44792;52.760;6.726;2022-12-07T13:25:12;2.78;;;1.40;;
59006;SDS011;44792;52.760;6.726;2022-12-07T13:28:02;3.72;;;1.65;;
59006;SDS011;44792;52.760;6.726;2022-12-07T13:30:42;3.72;;;1.60;;
59006;SDS011;44792;52.760;6.726;2022-12-07T13:33:28;4.03;;;1.33;;
59006;SDS011;44792;52.760;6.726;2022-12-07T13:35:55;5.75;;;1.58;;
59006;SDS011;44792;52.760;6.726;2022-12-07T13:38:28;4.75;;;1.45;;
59006;SDS011;44792;52.760;6.726;2022-12-07T13:41:15;3.67;;;1.33;;
59006;SDS011;44792;52.760;6.726;2022-12-07T13:43:53;2.75;;;1.33;;
59006;SDS011;44792;52.760;6.726;2022-12-07T13:46:28;2.17;;;1.10;;
59006;SDS011;44792;52.760;6.726;2022-12-07T13:49:15;5.53;;;1.40;;
59006;SDS011;44792;52.760;6.726;2022-12-07T13:51:43;1.88;;;0.90;;
59006;SDS011;44792;52.760;6.726;2022-12-07T13:54:10;1.83;;;0.90;;
59006;SDS011;44792;52.760;6.726;2022-12-07T13:56:37;5.32;;;1.05;;
59006;SDS011;44792;52.760;6.726;2022-12-07T13:59:37;4.20;;;1.63;;
59006;SDS011;44792;52.760;6.726;2022-12-07T14:01:58;3.55;;;1.30;;
59006;SDS011;44792;52.760;6.726;2022-12-07T14:06:57;1.75;;;0.70;;
59006;SDS011;44792;52.760;6.726;2022-12-07T14:09:24;3.67;;;1.20;;
59006;SDS011;44792;52.760;6.726;2022-12-07T14:11:52;2.50;;;1.10;;
59006;SDS011;44792;52.760;6.726;2022-12-07T14:14:22;2.50;;;1.10;;
59006;SDS011;44792;52.760;6.726;2022-12-07T14:19:44;1.92;;;1.08;;
59006;SDS011;44792;52.760;6.726;2022-12-07T14:22:24;9.38;;;2.42;;
59006;SDS011;44792;52.760;6.726;2022-12-07T14:25:02;34.95;;;7.57;;
59006;SDS011;44792;52.760;6.726;2022-12-07T14:27:49;10.15;;;3.03;;
59006;SDS011;44792;52.760;6.726;2022-12-07T14:30:20;16.23;;;4.07;;
59006;SDS011;44792;52.760;6.726;2022-12-07T14:32:47;31.98;;;9.25;;
59006;SDS011;44792;52.760;6.726;2022-12-07T14:35:17;10.52;;;3.78;;
59006;SDS011;44792;52.760;6.726;2022-12-07T14:37:45;2.22;;;1.60;;
59006;SDS011;44792;52.760;6.726;2022-12-07T14:40:13;3.20;;;2.65;;
59006;SDS011;44792;52.760;6.726;2022-12-07T14:42:40;3.83;;;2.03;;
59006;SDS011;44792;52.760;6.726;2022-12-07T14:45:12;17.90;;;4.43;;
59006;SDS011;44792;52.760;6.726;2022-12-07T14:47:43;19.35;;;5.45;;
59006;SDS011;44792;52.760;6.726;2022-12-07T14:50:11;16.10;;;5.68;;
59006;SDS011;44792;52.760;6.726;2022-12-07T14:52:38;10.10;;;4.45;;
59006;SDS011;44792;52.760;6.726;2022-12-07T14:55:04;5.95;;;2.53;;
59006;SDS011;44792;52.760;6.726;2022-12-07T14:57:37;3.83;;;2.10;;
59006;SDS011;44792;52.760;6.726;2022-12-07T15:00:03;8.55;;;1.75;;
59006;SDS011;44792;52.760;6.726;2022-12-07T15:02:29;1.85;;;1.48;;
59006;SDS011;44792;52.760;6.726;2022-12-07T15:04:54;8.30;;;1.90;;
59006;SDS011;44792;52.760;6.726;2022-12-07T15:07:20;4.30;;;2.08;;
59006;SDS011;44792;52.760;6.726;2022-12-07T15:09:47;9.20;;;2.47;;
59006;SDS011;44792;52.760;6.726;2022-12-07T15:12:13;6.18;;;3.42;;
59006;SDS011;44792;52.760;6.726;2022-12-07T15:14:38;9.88;;;4.68;;
59006;SDS011;44792;52.760;6.726;2022-12-07T15:17:04;9.50;;;3.97;;
59006;SDS011;44792;52.760;6.726;2022-12-07T15:19:30;11.27;;;3.58;;
59006;SDS011;44792;52.760;6.726;2022-12-07T15:21:56;4.57;;;2.30;;
59006;SDS011;44792;52.760;6.726;2022-12-07T15:24:22;4.47;;;2.03;;
59006;SDS011;44792;52.760;6.726;2022-12-07T15:26:49;4.63;;;1.75;;
59006;SDS011;44792;52.760;6.726;2022-12-07T15:29:14;10.48;;;2.90;;
59006;SDS011;44792;52.760;6.726;2022-12-07T15:31:41;6.30;;;1.90;;
59006;SDS011;44792;52.760;6.726;2022-12-07T15:34:07;6.75;;;2.47;;
59006;SDS011;44792;52.760;6.726;2022-12-07T15:36:33;4.53;;;2.13;;
59006;SDS011;44792;52.760;6.726;2022-12-07T15:39:00;3.88;;;1.50;;
59006;SDS011;44792;52.760;6.726;2022-12-07T15:41:25;4.15;;;2.22;;
59006;SDS011;44792;52.760;6.726;2022-12-07T15:43:51;6.97;;;1.90;;
59006;SDS011;44792;52.760;6.726;2022-12-07T15:46:37;5.32;;;2.22;;
59006;SDS011;44792;52.760;6.726;2022-12-07T15:49:06;6.53;;;2.20;;
59006;SDS011;44792;52.760;6.726;2022-12-07T15:51:39;9.68;;;2.85;;
59006;SDS011;44792;52.760;6.726;2022-12-07T15:54:05;5.18;;;2.03;;
59006;SDS011;44792;52.760;6.726;2022-12-07T15:56:31;5.65;;;2.10;;
59006;SDS011;44792;52.760;6.726;2022-12-07T15:58:56;4.53;;;1.60;;
59006;SDS011;44792;52.760;6.726;2022-12-07T16:01:22;2.83;;;1.60;;
59006;SDS011;44792;52.760;6.726;2022-12-07T16:03:47;5.15;;;1.13;;
59006;SDS011;44792;52.760;6.726;2022-12-07T16:06:17;8.15;;;2.00;;
59006;SDS011;44792;52.760;6.726;2022-12-07T16:08:46;19.90;;;5.95;;
59006;SDS011;44792;52.760;6.726;2022-12-07T16:11:12;28.02;;;7.90;;
59006;SDS011;44792;52.760;6.726;2022-12-07T16:13:38;30.25;;;6.70;;
59006;SDS011;44792;52.760;6.726;2022-12-07T16:16:10;30.58;;;7.45;;
59006;SDS011;44792;52.760;6.726;2022-12-07T16:18:38;13.65;;;3.35;;
59006;SDS011;44792;52.760;6.726;2022-12-07T16:21:04;5.95;;;2.83;;
59006;SDS011;44792;52.760;6.726;2022-12-07T16:23:29;7.57;;;3.50;;
59006;SDS011;44792;52.760;6.726;2022-12-07T16:26:03;9.75;;;3.75;;
59006;SDS011;44792;52.760;6.726;2022-12-07T16:28:32;5.82;;;2.83;;
59006;SDS011;44792;52.760;6.726;2022-12-07T16:31:01;8.93;;;3.33;;
59006;SDS011;44792;52.760;6.726;2022-12-07T16:33:31;8.50;;;3.30;;
59006;SDS011;44792;52.760;6.726;2022-12-07T16:35:58;6.38;;;1.90;;
59006;SDS011;44792;52.760;6.726;2022-12-07T16:38:24;3.22;;;1.52;;
59006;SDS011;44792;52.760;6.726;2022-12-07T16:40:50;3.67;;;1.35;;